Time;durP1;ratioP1;P1;durP2;ratioP2;P2;SDS_P1;SDS_P2;PMS_P1;PMS_P2;Temp;Humidity;BMP_temperature;BMP_pressure;BME280_temperature;BME280_humidity;BME280_pressure;Samples;Min_cycle;Max_cycle;Signal;HPM_P1;HPM_P2
2021/12/13 00:01:29;;;;;;;4.55;2.45;;;18.30;70.30;;;;;;4992378;28;20081;-69
2021/12/13 00:04:01;;;;;;;6.80;2.50;;;18.20;61.10;;;;;;5009737;28;20048;-69
2021/12/13 00:06:35;;;;;;;8.57;2.10;;;17.90;32.70;;;;;;4991859;28;20140;-68
2021/12/13 00:09:10;;;;;;;11.55;2.28;;;17.90;33.40;;;;;;4988064;28;20098;-67
2021/12/13 00:11:47;;;;;;;3.08;1.65;;;17.80;34.20;;;;;;4986681;28;20089;-67
2021/12/13 00:14:23;;;;;;;;;;;17.70;34.40;;;;;;4973906;28;20558;-68
2021/12/13 00:17:02;;;;;;;28.23;13.55;;;17.60;34.80;;;;;;4993761;28;19958;-67
2021/12/13 00:20:06;;;;;;;35.65;17.58;;;17.50;35.40;;;;;;4977816;28;20140;-65
2021/12/13 00:22:38;;;;;;;35.08;20.83;;;17.40;35.80;;;;;;4930142;29;20115;-67
2021/12/13 00:25:11;;;;;;;40.50;20.00;;;17.30;35.80;;;;;;4931729;29;20092;-69
2021/12/13 00:27:46;;;;;;;34.38;17.45;;;17.10;36.10;;;;;;4930558;29;20239;-68
2021/12/13 00:30:34;;;;;;;33.95;13.70;;;17.00;36.50;;;;;;4915400;29;20129;-68
2021/12/13 00:33:15;;;;;;;208.13;118.72;;;16.90;36.90;;;;;;4915163;29;20586;-67
2021/12/13 00:35:49;;;;;;;191.32;109.45;;;16.90;38.00;;;;;;4931140;29;20510;-68
2021/12/13 00:38:21;;;;;;;151.55;89.55;;;16.80;38.80;;;;;;4914745;29;20072;-68
2021/12/13 00:40:53;;;;;;;137.55;81.45;;;16.50;39.00;;;;;;4915187;29;20219;-66
2021/12/13 00:43:28;;;;;;;176.68;99.50;;;16.50;39.40;;;;;;4915029;29;20099;-69
2021/12/13 00:46:00;;;;;;;215.68;132.30;;;16.30;39.70;;;;;;4918454;29;20613;-69
2021/12/13 00:48:31;;;;;;;228.80;139.85;;;16.20;40.30;;;;;;4926733;29;20498;-68
2021/12/13 00:51:09;;;;;;;221.68;130.70;;;16.20;40.40;;;;;;4915018;29;20091;-68
2021/12/13 00:53:40;;;;;;;189.10;115.65;;;16.00;40.70;;;;;;4914851;29;20531;-69
2021/12/13 00:56:45;;;;;;;176.43;106.68;;;15.90;40.90;;;;;;4915339;29;20091;-68
2021/12/13 00:59:20;;;;;;;182.88;109.53;;;15.70;40.90;;;;;;4972611;28;20515;-67
2021/12/13 01:02:00;;;;;;;175.73;105.10;;;15.60;40.80;;;;;;4992793;28;20070;-70
2021/12/13 01:04:45;;;;;;;159.65;96.95;;;15.50;40.80;;;;;;4990330;28;20086;-69
2021/12/13 01:07:33;;;;;;;152.65;92.22;;;15.40;40.90;;;;;;4989904;28;20129;-68
2021/12/13 01:10:37;;;;;;;147.98;86.75;;;15.20;41.40;;;;;;4992328;28;20074;-69
2021/12/13 01:13:28;;;;;;;143.38;85.50;;;15.10;41.60;;;;;;4989814;28;20106;-67
2021/12/13 01:16:49;;;;;;;123.53;73.60;;;15.10;41.80;;;;;;4991922;28;20118;-67
2021/12/13 01:22:16;;;;;;;92.47;47.30;;;14.90;42.00;;;;;;5011376;28;20078;-70
2021/12/13 01:27:31;;;;;;;106.82;64.35;;;14.80;42.30;;;;;;5013105;28;20098;-67
2021/12/13 01:29:58;;;;;;;125.30;68.32;;;14.70;42.40;;;;;;4994667;28;20091;-67
2021/12/13 01:32:33;;;;;;;108.85;59.10;;;14.60;42.20;;;;;;5012061;28;20081;-70
2021/12/13 01:35:00;;;;;;;102.32;53.70;;;14.70;42.50;;;;;;5012170;28;20074;-70
2021/12/13 01:37:31;;;;;;;80.25;45.15;;;14.60;42.70;;;;;;5011515;28;20456;-71
2021/12/13 01:40:06;;;;;;;61.22;33.35;;;14.50;43.30;;;;;;4995653;28;20074;-69
2021/12/13 01:42:33;;;;;;;58.53;29.67;;;14.50;50.80;;;;;;4994914;28;20077;-69
2021/12/13 01:45:07;;;;;;;49.70;24.83;;;14.40;44.00;;;;;;5013578;28;20520;-71
2021/12/13 01:47:41;;;;;;;63.50;31.85;;;14.30;44.00;;;;;;4995927;28;20165;-68
2021/12/13 01:50:20;;;;;;;95.57;51.67;;;14.20;44.00;;;;;;4995472;28;20098;-69
2021/12/13 01:52:50;;;;;;;109.03;51.67;;;14.10;44.30;;;;;;4995263;28;20612;-71
2021/12/13 01:55:34;;;;;;;85.10;42.72;;;14.10;44.90;;;;;;5012640;28;20185;-68
2021/12/13 01:58:36;;;;;;;76.82;38.00;;;14.10;44.90;;;;;;5012157;28;20536;-68
2021/12/13 02:01:12;;;;;;;75.90;31.45;;;14.10;45.70;;;;;;5013063;28;20076;-69
2021/12/13 02:03:56;;;;;;;64.50;28.17;;;13.90;45.60;;;;;;4995180;28;20093;-68
2021/12/13 02:06:36;;;;;;;63.03;24.55;;;13.90;46.00;;;;;;4994475;28;20087;-66
2021/12/13 02:09:26;;;;;;;55.65;23.95;;;13.90;46.00;;;;;;5011905;28;20081;-68
2021/12/13 02:12:00;;;;;;;54.58;19.95;;;13.90;46.20;;;;;;4995447;28;20161;-69
2021/12/13 02:14:31;;;;;;;51.13;19.38;;;13.80;46.10;;;;;;4995519;28;20093;-71
2021/12/13 02:17:10;;;;;;;42.53;17.23;;;13.70;46.50;;;;;;5012998;28;20157;-68
2021/12/13 02:19:52;;;;;;;56.25;18.15;;;13.70;46.70;;;;;;4994152;28;20101;-67
2021/12/13 02:22:34;;;;;;;45.55;16.65;;;13.70;46.90;;;;;;4994325;28;20085;-68
2021/12/13 02:25:15;;;;;;;41.90;15.98;;;13.70;46.80;;;;;;4994459;28;20090;-71
2021/12/13 02:27:58;;;;;;;40.50;18.00;;;13.60;46.80;;;;;;4992518;28;20077;-69
2021/12/13 02:30:40;;;;;;;48.30;20.45;;;13.60;46.80;;;;;;4994945;28;20124;-68
2021/12/13 02:33:09;;;;;;;51.55;20.67;;;13.50;47.10;;;;;;5011035;28;20175;-68
2021/12/13 02:35:40;;;;;;;49.50;19.83;;;13.40;47.10;;;;;;4993837;28;20081;-68
2021/12/13 02:38:10;;;;;;;47.35;19.70;;;13.40;47.50;;;;;;4993623;28;20137;-70
2021/12/13 02:40:37;;;;;;;66.32;20.40;;;13.40;47.60;;;;;;4962569;28;20074;-70
2021/12/13 02:43:07;;;;;;;50.78;20.85;;;13.40;48.00;;;;;;5011895;28;20137;-69
2021/12/13 02:45:42;;;;;;;43.08;20.45;;;13.40;47.80;;;;;;4993571;28;20158;-71
2021/12/13 02:48:24;;;;;;;62.58;22.45;;;13.40;47.60;;;;;;4994184;28;20545;-70
2021/12/13 02:50:56;;;;;;;53.05;22.48;;;13.40;48.00;;;;;;4987082;28;20145;-68
2021/12/13 02:53:54;;;;;;;48.92;22.20;;;13.40;48.30;;;;;;4994504;28;20101;-69
2021/12/13 02:56:27;;;;;;;56.03;23.02;;;13.40;48.90;;;;;;4991171;28;20444;-67
2021/12/13 02:58:57;;;;;;;56.10;22.30;;;13.30;48.60;;;;;;4974873;28;20245;-67
2021/12/13 03:01:38;;;;;;;48.85;21.55;;;13.20;48.60;;;;;;4974559;28;20150;-63
2021/12/13 03:04:08;;;;;;;49.88;20.52;;;13.20;49.10;;;;;;4973963;28;20668;-66
2021/12/13 03:06:41;;;;;;;48.80;21.30;;;13.10;48.90;;;;;;4974343;28;20133;-65
2021/12/13 03:09:14;;;;;;;49.60;20.73;;;13.20;49.40;;;;;;4974720;28;20074;-65
2021/12/13 03:11:44;;;;;;;57.65;21.27;;;13.10;49.30;;;;;;4975177;28;20105;-65
2021/12/13 03:14:32;;;;;;;65.78;22.08;;;13.10;49.60;;;;;;4974562;28;20082;-68
2021/12/13 03:16:59;;;;;;;54.72;20.00;;;13.10;50.10;;;;;;4975467;28;20552;-67
2021/12/13 03:19:43;;;;;;;53.72;22.73;;;13.10;49.70;;;;;;4974689;28;20078;-68
2021/12/13 03:22:37;;;;;;;62.70;22.58;;;13.00;50.20;;;;;;4973984;28;20094;-69
2021/12/13 03:25:08;;;;;;;64.00;23.00;;;13.00;50.30;;;;;;4974722;28;20134;-69
2021/12/13 03:27:50;;;;;;;53.72;20.98;;;12.90;50.70;;;;;;4974944;28;20537;-66
2021/12/13 03:31:04;;;;;;;54.90;21.08;;;12.90;50.30;;;;;;4991963;28;20075;-66
2021/12/13 03:33:52;;;;;;;51.92;23.25;;;12.90;50.20;;;;;;4969349;28;20082;-67
2021/12/13 03:36:22;;;;;;;;;;;12.80;50.40;;;;;;4971805;28;20128;-66
2021/12/13 03:38:54;;;;;;;83.93;38.85;;;12.70;51.10;;;;;;4974415;28;20336;-65
2021/12/13 03:41:24;;;;;;;86.22;41.50;;;12.80;51.40;;;;;;4970382;28;20208;-66
2021/12/13 03:44:00;;;;;;;86.45;44.10;;;12.70;51.20;;;;;;4969480;28;20170;-65
2021/12/13 03:46:32;;;;;;;94.40;47.47;;;12.70;51.20;;;;;;4967271;28;20090;-66
2021/12/13 03:49:01;;;;;;;97.18;47.97;;;12.60;51.10;;;;;;4958141;28;20073;-69
2021/12/13 03:51:33;;;;;;;90.00;42.85;;;12.50;51.40;;;;;;4973974;28;20102;-69
2021/12/13 03:54:01;;;;;;;82.97;39.90;;;12.50;51.50;;;;;;4974221;28;20110;-69
2021/12/13 03:56:33;;;;;;;85.22;35.75;;;12.50;51.60;;;;;;4975322;28;20114;-69
2021/12/13 03:59:04;;;;;;;83.32;35.67;;;12.40;51.30;;;;;;4993848;28;20133;-67
2021/12/13 04:01:40;;;;;;;74.97;34.17;;;12.30;51.30;;;;;;4986131;28;20084;-67
2021/12/13 04:04:12;;;;;;;69.80;29.17;;;12.20;51.60;;;;;;4993810;28;20078;-66
2021/12/13 04:07:10;;;;;;;66.40;29.67;;;12.30;52.10;;;;;;4993418;28;20094;-66
2021/12/13 04:09:37;;;;;;;67.20;26.13;;;12.30;51.80;;;;;;4993433;28;20100;-68
2021/12/13 04:12:07;;;;;;;60.45;26.13;;;12.20;51.60;;;;;;4994094;28;20102;-65
2021/12/13 04:14:42;;;;;;;54.78;25.90;;;12.20;51.70;;;;;;4990357;28;20081;-68
2021/12/13 04:17:33;;;;;;;63.58;28.33;;;12.20;51.60;;;;;;5011114;28;20100;-66
2021/12/13 04:20:04;;;;;;;74.70;32.03;;;12.10;51.60;;;;;;4993467;28;20144;-68
2021/12/13 04:22:34;;;;;;;70.07;29.70;;;12.00;52.10;;;;;;4977828;28;20078;-67
2021/12/13 04:25:19;;;;;;;69.32;30.50;;;11.90;52.40;;;;;;4977719;28;20094;-67
2021/12/13 04:27:57;;;;;;;76.70;32.33;;;11.90;52.40;;;;;;4992722;28;20544;-68
2021/12/13 04:30:34;;;;;;;66.32;32.05;;;11.90;52.50;;;;;;5011080;28;20168;-67
2021/12/13 04:33:13;;;;;;;82.85;31.63;;;11.90;52.60;;;;;;4993276;28;20564;-67
2021/12/13 04:35:42;;;;;;;78.82;32.35;;;11.90;53.10;;;;;;4993419;28;20084;-66
2021/12/13 04:38:09;;;;;;;71.53;30.55;;;11.90;53.60;;;;;;5011240;28;20078;-68
2021/12/13 04:40:39;;;;;;;77.28;26.83;;;12.00;53.50;;;;;;4993273;28;20074;-68
2021/12/13 04:43:13;;;;;;;65.30;27.88;;;11.90;54.10;;;;;;4990733;28;20454;-67
2021/12/13 04:45:58;;;;;;;69.15;25.95;;;11.90;53.60;;;;;;4992531;28;20155;-69
2021/12/13 04:48:28;;;;;;;71.57;26.15;;;11.80;53.20;;;;;;5010553;28;20120;-70
2021/12/13 04:51:08;;;;;;;71.93;25.45;;;11.80;53.10;;;;;;5009413;28;20090;-68
2021/12/13 04:53:45;;;;;;;76.03;25.63;;;11.70;53.40;;;;;;4993210;28;20084;-65
2021/12/13 04:56:16;;;;;;;66.88;26.05;;;11.70;53.10;;;;;;4993329;28;20088;-68
2021/12/13 04:58:46;;;;;;;58.58;25.33;;;11.70;53.20;;;;;;5010717;28;20627;-70
2021/12/13 05:01:14;;;;;;;68.68;26.10;;;11.60;53.30;;;;;;4993314;28;20078;-67
2021/12/13 05:03:48;;;;;;;64.05;24.45;;;11.60;53.70;;;;;;4993269;28;20078;-68
2021/12/13 05:06:19;;;;;;;70.90;26.58;;;11.60;54.00;;;;;;4992985;28;20549;-66
2021/12/13 05:08:49;;;;;;;84.60;27.80;;;11.60;54.20;;;;;;4993668;28;20136;-66
2021/12/13 05:11:17;;;;;;;72.32;27.90;;;11.60;54.80;;;;;;4993080;28;20082;-68
2021/12/13 05:13:50;;;;;;;75.55;26.67;;;11.50;54.10;;;;;;5010569;28;20105;-67
2021/12/13 05:16:26;;;;;;;70.30;28.17;;;11.50;54.50;;;;;;4993699;28;20079;-67
2021/12/13 05:18:55;;;;;;;74.57;29.47;;;11.50;54.50;;;;;;4992892;28;20177;-69
2021/12/13 05:21:32;;;;;;;89.78;30.63;;;11.50;54.50;;;;;;4993279;28;20517;-67
2021/12/13 05:24:02;;;;;;;82.40;30.13;;;11.40;55.20;;;;;;4992818;28;20074;-69
2021/12/13 05:26:33;;;;;;;79.28;31.13;;;11.40;54.90;;;;;;4993981;28;20102;-67
2021/12/13 05:29:02;;;;;;;82.07;30.50;;;11.40;55.50;;;;;;4991439;28;20077;-67
2021/12/13 05:31:30;;;;;;;99.90;37.53;;;11.40;55.70;;;;;;5009959;28;20075;-68
2021/12/13 05:34:03;;;;;;;95.18;34.10;;;11.40;55.60;;;;;;4991857;28;20165;-65
2021/12/13 05:36:36;;;;;;;86.03;33.13;;;11.40;55.70;;;;;;5009256;28;20422;-67
2021/12/13 05:39:12;;;;;;;81.95;31.83;;;11.30;55.90;;;;;;4991748;28;20085;-68
2021/12/13 05:41:41;;;;;;;95.50;42.10;;;11.30;56.00;;;;;;4993270;28;20173;-68
2021/12/13 05:44:11;;;;;;;95.45;34.83;;;11.30;55.90;;;;;;5008332;28;20098;-69
2021/12/13 05:46:45;;;;;;;99.47;35.15;;;11.30;56.10;;;;;;4991266;28;20118;-69
2021/12/13 05:49:20;;;;;;;111.80;35.47;;;11.30;56.20;;;;;;4991939;28;20169;-69
2021/12/13 05:51:51;;;;;;;94.25;34.33;;;11.30;56.60;;;;;;4991882;28;20090;-69
2021/12/13 05:54:32;;;;;;;105.85;34.90;;;11.30;56.50;;;;;;5009266;28;20090;-68
2021/12/13 05:57:09;;;;;;;103.03;35.15;;;11.20;56.40;;;;;;4986315;28;20110;-68
2021/12/13 05:59:53;;;;;;;100.80;37.60;;;11.10;56.90;;;;;;4975944;28;20121;-66
2021/12/13 06:02:31;;;;;;;105.20;37.33;;;11.10;57.10;;;;;;5009485;28;20074;-67
2021/12/13 06:05:16;;;;;;;108.10;37.38;;;11.10;57.20;;;;;;5009208;28;20090;-67
2021/12/13 06:07:51;;;;;;;110.97;37.00;;;11.00;57.30;;;;;;5009308;28;20993;-67
2021/12/13 06:10:18;;;;;;;102.13;38.65;;;11.10;57.70;;;;;;4995314;28;20070;-68
2021/12/13 06:13:03;;;;;;;97.80;36.95;;;11.10;58.10;;;;;;5012436;28;20156;-66
2021/12/13 06:15:32;;;;;;;94.40;35.55;;;11.20;58.20;;;;;;4995320;28;20559;-68
2021/12/13 06:18:05;;;;;;;100.28;37.17;;;11.20;57.70;;;;;;5013556;28;20595;-66
2021/12/13 06:20:43;;;;;;;87.15;38.60;;;11.00;57.40;;;;;;4993799;28;20089;-66
2021/12/13 06:23:16;;;;;;;112.28;39.40;;;11.00;57.50;;;;;;4994510;28;20074;-65
2021/12/13 06:25:48;;;;;;;106.93;39.15;;;10.80;57.50;;;;;;4994812;28;20086;-68
2021/12/13 06:28:22;;;;;;;111.15;40.67;;;10.80;58.10;;;;;;4995572;28;20074;-68
2021/12/13 06:31:14;;;;;;;115.55;41.47;;;10.90;59.30;;;;;;4994993;28;20082;-67
2021/12/13 06:33:59;;;;;;;113.55;43.25;;;10.90;58.40;;;;;;5001341;28;20508;-66
2021/12/13 06:36:28;;;;;;;119.95;43.58;;;10.90;57.80;;;;;;5012274;28;20082;-66
2021/12/13 06:38:58;;;;;;;115.65;44.80;;;10.80;58.30;;;;;;4994748;28;20165;-68
2021/12/13 06:41:27;;;;;;;106.28;42.50;;;10.80;58.40;;;;;;5012033;28;20075;-68
2021/12/13 06:44:00;;;;;;;107.18;42.33;;;10.90;58.60;;;;;;4994441;28;20544;-67
2021/12/13 06:46:27;;;;;;;111.35;43.75;;;10.80;58.20;;;;;;4993949;28;20460;-68
2021/12/13 06:48:54;;;;;;;;;;;10.70;58.40;;;;;;4995535;28;20073;-66
2021/12/13 06:51:41;;;;;;;112.97;42.63;;;10.80;58.80;;;;;;4993655;28;19954;-63
2021/12/13 06:54:12;;;;;;;104.47;43.33;;;10.70;59.00;;;;;;4993587;28;20085;-63
2021/12/13 06:56:41;;;;;;;94.80;42.13;;;10.70;58.50;;;;;;5010208;28;20090;-64
2021/12/13 06:59:14;;;;;;;122.70;43.33;;;10.70;58.30;;;;;;4988425;28;20074;-64
2021/12/13 07:01:42;;;;;;;100.43;44.13;;;10.70;58.50;;;;;;5006653;28;20078;-63
2021/12/13 07:04:13;;;;;;;119.22;42.47;;;10.70;59.20;;;;;;4987312;28;20128;-61
2021/12/13 07:06:40;;;;;;;103.60;41.38;;;10.80;59.40;;;;;;4989314;28;20087;-61
2021/12/13 07:09:21;;;;;;;96.72;42.00;;;10.70;59.30;;;;;;4986602;28;20095;-61
2021/12/13 07:11:54;;;;;;;106.65;43.65;;;10.70;59.20;;;;;;4958308;28;20066;-63
2021/12/13 07:14:36;;;;;;;108.43;41.55;;;10.70;59.50;;;;;;4988196;28;20070;-63
2021/12/13 07:17:33;;;;;;;110.00;42.35;;;10.70;59.60;;;;;;4955797;28;20202;-64
2021/12/13 07:20:10;;;;;;;102.93;40.85;;;10.70;59.60;;;;;;4991432;28;20078;-64
2021/12/13 07:22:37;;;;;;;115.32;42.63;;;10.60;59.60;;;;;;5007545;28;20089;-63
2021/12/13 07:25:10;;;;;;;107.28;41.92;;;10.70;60.10;;;;;;4973384;28;20104;-64
2021/12/13 07:27:44;;;;;;;100.65;41.05;;;10.70;60.30;;;;;;5004086;28;20418;-64
2021/12/13 07:30:30;;;;;;;99.93;39.45;;;10.60;59.30;;;;;;4988464;28;20412;-64
2021/12/13 07:33:03;;;;;;;91.20;38.38;;;10.60;59.10;;;;;;5004663;28;20440;-62
2021/12/13 07:35:48;;;;;;;92.05;39.13;;;10.60;59.00;;;;;;4972272;28;20148;-62
2021/12/13 07:38:18;;;;;;;94.28;39.38;;;10.60;59.20;;;;;;4985008;28;20079;-61
2021/12/13 07:40:46;;;;;;;90.30;37.97;;;10.50;59.40;;;;;;5006177;28;20078;-63
2021/12/13 07:43:34;;;;;;;93.07;36.50;;;10.50;59.20;;;;;;4984985;28;20091;-63
2021/12/13 07:46:20;;;;;;;91.32;36.78;;;10.50;59.10;;;;;;4985585;28;20070;-64
2021/12/13 07:48:47;;;;;;;94.50;36.85;;;10.40;59.30;;;;;;4972128;28;20458;-62
2021/12/13 07:51:16;;;;;;;;;;;10.50;59.50;;;;;;4983362;28;20091;-65
2021/12/13 07:53:57;;;;;;;89.97;38.35;;;10.50;60.00;;;;;;4985414;28;20915;-63
2021/12/13 07:56:44;;;;;;;92.88;38.10;;;10.30;59.90;;;;;;4986279;28;20553;-64
2021/12/13 07:59:27;;;;;;;93.72;40.17;;;10.20;61.00;;;;;;4982920;28;20083;-64
2021/12/13 08:02:01;;;;;;;98.05;42.70;;;10.20;59.90;;;;;;4984710;28;20089;-66
2021/12/13 08:04:36;;;;;;;95.13;44.90;;;10.10;60.30;;;;;;4986545;28;20552;-64
2021/12/13 08:07:22;;;;;;;108.93;46.95;;;10.00;60.30;;;;;;4985259;28;20102;-65
2021/12/13 08:09:52;;;;;;;120.75;51.65;;;9.90;60.40;;;;;;4989059;28;20078;-63
2021/12/13 08:12:26;;;;;;;126.10;54.97;;;9.90;60.50;;;;;;5003270;28;20090;-66
2021/12/13 08:15:12;;;;;;;125.88;53.85;;;9.90;60.80;;;;;;4968466;28;20555;-66
2021/12/13 08:17:51;;;;;;;133.27;54.95;;;9.90;61.60;;;;;;4986151;28;20541;-64
2021/12/13 08:20:43;;;;;;;130.73;54.03;;;10.00;60.80;;;;;;4987614;28;20082;-62
2021/12/13 08:23:41;;;;;;;138.20;54.50;;;10.10;60.80;;;;;;4993719;28;20181;-65
2021/12/13 08:26:11;;;;;;;131.18;56.70;;;10.10;60.90;;;;;;4951003;28;20107;-67
2021/12/13 08:28:43;;;;;;;150.57;55.63;;;10.10;61.50;;;;;;4951837;28;20158;-66
2021/12/13 08:31:20;;;;;;;117.20;53.70;;;10.10;61.20;;;;;;4949779;28;20075;-66
2021/12/13 08:33:51;;;;;;;149.35;54.80;;;10.10;60.60;;;;;;4952276;28;20079;-64
2021/12/13 08:36:40;;;;;;;133.70;56.28;;;10.10;60.60;;;;;;4951924;28;20441;-64
2021/12/13 08:39:15;;;;;;;132.63;56.97;;;10.20;61.00;;;;;;4950878;28;20076;-63
2021/12/13 08:41:53;;;;;;;120.70;55.33;;;10.20;60.90;;;;;;4938673;28;20102;-61
2021/12/13 08:44:35;;;;;;;140.07;58.17;;;10.10;60.20;;;;;;4951123;28;20083;-65
2021/12/13 08:47:11;;;;;;;137.52;57.85;;;10.10;60.20;;;;;;4948440;28;20095;-62
2021/12/13 08:49:51;;;;;;;144.03;58.90;;;10.00;60.30;;;;;;4951786;28;20095;-64
2021/12/13 08:52:22;;;;;;;151.68;58.40;;;10.00;59.90;;;;;;4967907;28;20309;-61
2021/12/13 08:54:55;;;;;;;148.90;58.20;;;10.00;60.50;;;;;;4951816;28;20106;-64
2021/12/13 08:57:34;;;;;;;153.45;59.92;;;10.00;60.20;;;;;;4951759;28;20111;-62
2021/12/13 09:00:12;;;;;;;176.25;65.32;;;9.90;59.40;;;;;;4950779;28;20441;-63
2021/12/13 09:02:50;;;;;;;170.93;65.40;;;9.90;60.20;;;;;;4966016;28;20450;-61
2021/12/13 09:05:36;;;;;;;175.52;64.57;;;9.90;61.10;;;;;;4986885;28;20141;-64
2021/12/13 09:08:08;;;;;;;179.30;70.25;;;9.90;60.40;;;;;;4985947;28;20168;-64
2021/12/13 09:10:51;;;;;;;197.05;67.20;;;9.90;60.50;;;;;;4969173;28;20556;-63
2021/12/13 09:13:32;;;;;;;221.20;76.18;;;9.90;60.30;;;;;;4984850;28;20097;-65
2021/12/13 09:16:00;;;;;;;232.52;79.40;;;9.90;60.50;;;;;;4967741;28;20489;-63
2021/12/13 09:18:27;;;;;;;256.58;80.07;;;9.90;60.70;;;;;;4985859;28;20101;-65
2021/12/13 09:20:56;;;;;;;244.27;88.95;;;9.90;60.20;;;;;;4984032;28;20320;-63
2021/12/13 09:23:28;;;;;;;224.93;87.35;;;9.90;60.30;;;;;;4970075;28;20090;-64
2021/12/13 09:26:14;;;;;;;245.05;82.97;;;9.90;59.90;;;;;;4952397;28;20086;-63
2021/12/13 09:28:45;;;;;;;237.45;87.57;;;9.80;59.90;;;;;;4985228;28;20071;-65
2021/12/13 09:31:32;;;;;;;293.98;105.75;;;9.80;59.60;;;;;;4985610;28;20079;-62
2021/12/13 09:34:14;;;;;;;280.05;107.20;;;9.80;59.60;;;;;;4985141;28;20074;-64
2021/12/13 09:36:46;;;;;;;300.50;114.20;;;9.60;59.60;;;;;;4986708;28;20086;-63
2021/12/13 09:39:17;;;;;;;306.67;112.82;;;9.40;60.10;;;;;;5001558;28;20078;-62
2021/12/13 09:42:04;;;;;;;291.65;111.18;;;9.40;61.10;;;;;;5004423;28;20090;-63
2021/12/13 09:45:02;;;;;;;297.38;123.93;;;9.40;60.40;;;;;;4988219;28;20098;-63
2021/12/13 09:47:33;;;;;;;;;;;9.40;60.30;;;;;;4915669;29;20625;-62
2021/12/13 09:50:03;;;;;;;345.00;129.50;;;9.30;60.80;;;;;;4899353;29;19982;-63
2021/12/13 09:52:37;;;;;;;344.42;131.70;;;9.20;59.80;;;;;;4929644;29;20091;-64
2021/12/13 09:55:29;;;;;;;335.50;128.43;;;9.30;59.60;;;;;;4915251;29;20393;-64
2021/12/13 09:58:19;;;;;;;337.27;134.35;;;9.30;59.10;;;;;;4900392;29;20109;-63
2021/12/13 10:01:11;;;;;;;385.35;142.10;;;9.20;58.40;;;;;;4903006;29;20595;-62
2021/12/13 10:03:50;;;;;;;402.65;151.02;;;9.30;59.20;;;;;;4897780;29;20103;-65
2021/12/13 10:06:21;;;;;;;375.77;150.95;;;9.30;59.40;;;;;;4929361;29;20092;-64
2021/12/13 10:09:06;;;;;;;374.63;149.20;;;9.30;60.20;;;;;;4899323;29;20428;-61
2021/12/13 10:11:40;;;;;;;374.08;144.90;;;9.20;60.00;;;;;;4913684;29;20093;-63
2021/12/13 10:14:09;;;;;;;378.45;146.38;;;9.20;59.70;;;;;;4913298;29;20085;-63
2021/12/13 10:16:41;;;;;;;352.10;141.35;;;9.20;60.30;;;;;;4900217;29;20080;-64
2021/12/13 10:19:14;;;;;;;354.15;140.70;;;9.30;59.90;;;;;;4912830;29;20606;-64
2021/12/13 10:21:43;;;;;;;369.25;139.93;;;9.20;59.40;;;;;;4913819;29;20116;-63
2021/12/13 10:24:34;;;;;;;355.75;145.18;;;9.10;59.50;;;;;;4956405;28;20102;-64
2021/12/13 10:27:03;;;;;;;366.35;139.85;;;9.20;59.30;;;;;;4987507;28;20090;-64
2021/12/13 10:29:31;;;;;;;355.65;143.75;;;9.10;59.70;;;;;;4989521;28;20145;-63
2021/12/13 10:32:04;;;;;;;352.95;143.10;;;9.20;59.70;;;;;;4989504;28;20066;-63
2021/12/13 10:34:36;;;;;;;382.70;148.10;;;9.20;59.90;;;;;;4986815;28;20078;-62
2021/12/13 10:37:21;;;;;;;370.73;150.40;;;9.20;59.90;;;;;;4971778;28;20090;-62
2021/12/13 10:39:52;;;;;;;379.80;149.35;;;9.20;60.30;;;;;;4990500;28;20225;-61
2021/12/13 10:42:24;;;;;;;384.90;145.75;;;9.30;60.10;;;;;;4972343;28;20078;-63
2021/12/13 10:44:51;;;;;;;374.17;150.95;;;9.30;60.10;;;;;;4969616;28;20093;-63
2021/12/13 10:47:19;;;;;;;;;;;9.20;60.40;;;;;;4955138;28;20567;-62
2021/12/13 10:49:48;;;;;;;372.00;152.20;;;9.20;61.70;;;;;;5005355;28;19985;-62
2021/12/13 10:52:32;;;;;;;371.90;147.90;;;9.10;61.90;;;;;;4971681;28;20480;-62
2021/12/13 10:55:08;;;;;;;375.45;150.15;;;9.00;62.10;;;;;;4986360;28;20077;-64
2021/12/13 10:57:39;;;;;;;370.77;150.85;;;9.00;60.70;;;;;;4986613;28;20164;-61
2021/12/13 11:00:15;;;;;;;377.90;150.02;;;8.80;61.70;;;;;;5006263;28;20071;-62
2021/12/13 11:02:42;;;;;;;402.25;152.95;;;8.90;61.70;;;;;;4988019;28;20078;-61
2021/12/13 11:05:20;;;;;;;362.63;150.68;;;9.00;61.50;;;;;;5006452;28;20177;-61
2021/12/13 11:07:48;;;;;;;361.80;147.40;;;9.00;61.90;;;;;;4971368;28;20070;-62
2021/12/13 11:10:23;;;;;;;364.77;150.85;;;9.00;61.80;;;;;;4972884;28;20079;-64
2021/12/13 11:12:54;;;;;;;387.30;158.95;;;9.00;62.50;;;;;;4987721;28;20077;-64
2021/12/13 11:15:26;;;;;;;389.48;158.85;;;9.00;61.50;;;;;;4988526;28;20070;-62
2021/12/13 11:17:54;;;;;;;385.95;157.98;;;8.80;60.80;;;;;;4987019;28;20124;-65
2021/12/13 11:20:26;;;;;;;387.35;167.63;;;8.60;62.40;;;;;;4955626;28;20501;-61
2021/12/13 11:22:53;;;;;;;375.90;168.68;;;8.50;62.70;;;;;;4984827;28;20106;-63
2021/12/13 11:25:27;;;;;;;382.50;154.60;;;8.60;62.70;;;;;;5007008;28;20071;-63
2021/12/13 11:27:54;;;;;;;376.60;153.07;;;8.60;62.40;;;;;;4968443;28;20097;-63
2021/12/13 11:30:25;;;;;;;370.60;152.40;;;8.60;62.70;;;;;;5005506;28;20070;-64
2021/12/13 11:32:58;;;;;;;368.77;156.60;;;8.70;62.80;;;;;;4985720;28;20067;-65
2021/12/13 11:36:01;;;;;;;350.70;150.10;;;8.70;63.50;;;;;;4987133;28;20094;-62
2021/12/13 11:38:49;;;;;;;363.13;147.30;;;8.70;63.20;;;;;;4987214;28;20094;-64
2021/12/13 11:41:37;;;;;;;379.10;161.32;;;8.60;62.90;;;;;;4985791;28;20083;-64
2021/12/13 11:44:36;;;;;;;371.95;150.30;;;8.70;63.80;;;;;;5004678;28;20186;-64
2021/12/13 11:47:24;;;;;;;331.67;146.55;;;8.70;63.10;;;;;;4983524;28;20133;-64
2021/12/13 11:50:28;;;;;;;365.83;153.00;;;8.70;63.10;;;;;;4985323;28;20185;-63
2021/12/13 11:53:33;;;;;;;357.67;152.27;;;8.70;63.40;;;;;;5003445;28;20074;-63
2021/12/13 11:56:18;;;;;;;375.35;150.27;;;8.60;64.00;;;;;;4914007;29;20099;-65
2021/12/13 11:59:19;;;;;;;350.10;146.27;;;8.70;63.60;;;;;;4997435;28;20130;-61
2021/12/13 12:02:28;;;;;;;358.42;152.60;;;8.70;63.60;;;;;;4987910;28;20168;-64
2021/12/13 12:05:28;;;;;;;377.45;148.38;;;8.70;63.90;;;;;;4950094;28;20156;-64
2021/12/13 12:08:10;;;;;;;349.63;147.20;;;8.60;64.60;;;;;;5004081;28;20094;-64
2021/12/13 12:10:47;;;;;;;338.55;140.65;;;8.60;64.30;;;;;;4986647;28;20082;-62
2021/12/13 12:13:36;;;;;;;360.00;146.45;;;8.60;63.40;;;;;;5004701;28;20493;-62
2021/12/13 12:16:06;;;;;;;349.25;145.57;;;8.60;62.90;;;;;;5004170;28;20066;-62
2021/12/13 12:18:36;;;;;;;349.02;150.88;;;8.60;63.30;;;;;;4986806;28;20208;-65
2021/12/13 12:21:40;;;;;;;361.02;145.52;;;8.50;62.60;;;;;;5004428;28;20085;-62
2021/12/13 12:24:19;;;;;;;344.83;141.65;;;8.60;62.90;;;;;;4984185;28;20092;-64
2021/12/13 12:26:52;;;;;;;377.33;152.18;;;8.50;62.80;;;;;;4970378;28;20086;-63
2021/12/13 12:29:22;;;;;;;381.90;152.82;;;8.60;63.60;;;;;;4984490;28;20169;-63
2021/12/13 12:31:57;;;;;;;371.00;148.88;;;8.60;64.20;;;;;;4986733;28;20933;-61
2021/12/13 12:34:24;;;;;;;370.10;153.32;;;8.50;63.60;;;;;;4986995;28;20444;-64
2021/12/13 12:37:00;;;;;;;366.67;148.73;;;8.60;63.90;;;;;;4969897;28;20161;-65
2021/12/13 12:39:38;;;;;;;379.80;154.45;;;8.60;64.00;;;;;;4986356;28;20129;-62
2021/12/13 12:42:43;;;;;;;347.50;161.75;;;8.60;64.10;;;;;;4984325;28;20102;-64
2021/12/13 12:45:36;;;;;;;366.58;155.80;;;8.60;65.00;;;;;;4987182;28;20075;-62
2021/12/13 12:48:11;;;;;;;343.90;146.32;;;8.50;64.70;;;;;;4985456;28;20086;-63
2021/12/13 12:50:45;;;;;;;382.48;156.07;;;8.40;64.30;;;;;;4984620;28;20098;-62
2021/12/13 12:53:32;;;;;;;370.38;161.27;;;8.40;65.10;;;;;;4986712;28;20619;-63
2021/12/13 12:56:07;;;;;;;356.30;157.77;;;8.20;64.70;;;;;;4985048;28;20075;-64
2021/12/13 12:58:38;;;;;;;355.15;165.50;;;8.20;66.00;;;;;;4986585;28;20123;-64
2021/12/13 13:01:42;;;;;;;357.85;151.80;;;8.20;66.40;;;;;;5004708;28;20085;-61
2021/12/13 13:04:13;;;;;;;354.90;151.63;;;8.30;65.50;;;;;;4971486;28;20201;-64
2021/12/13 13:07:03;;;;;;;327.58;150.40;;;8.30;65.50;;;;;;4985170;28;20188;-60
2021/12/13 13:09:39;;;;;;;324.90;140.68;;;8.10;65.30;;;;;;4985038;28;20201;-63
2021/12/13 13:12:07;;;;;;;320.05;141.13;;;8.10;64.80;;;;;;4986211;28;20098;-64
2021/12/13 13:14:41;;;;;;;323.83;144.35;;;8.10;64.30;;;;;;4969657;28;20070;-64
2021/12/13 13:17:08;;;;;;;332.02;153.68;;;8.10;63.70;;;;;;4969592;28;20198;-64
2021/12/13 13:19:39;;;;;;;329.75;153.25;;;8.10;64.30;;;;;;4987346;28;20537;-65